createdAt,value
2023-04-03T00:00:57.994Z,9.00
2023-04-03T00:03:46.040Z,9.60
2023-04-03T00:06:15.576Z,9.00
2023-04-03T00:08:52.674Z,8.50
2023-04-03T00:11:21.101Z,10.00
2023-04-03T00:13:47.962Z,7.90
2023-04-03T00:16:20.882Z,8.80
2023-04-03T00:18:49.289Z,8.40
2023-04-03T00:21:16.048Z,9.70
2023-04-03T00:23:42.732Z,8.80
2023-04-03T00:26:10.304Z,8.20
2023-04-03T00:28:38.592Z,9.70
2023-04-03T00:31:06.136Z,8.10
2023-04-03T00:33:33.441Z,8.90
2023-04-03T00:36:10.816Z,9.70
2023-04-03T00:38:38.519Z,7.30
2023-04-03T00:41:05.979Z,9.30
2023-04-03T00:43:32.996Z,9.20
2023-04-03T00:46:00.188Z,9.60
2023-04-03T00:48:46.445Z,8.50
2023-04-03T00:51:15.837Z,8.50
2023-04-03T00:53:57.721Z,9.20
2023-04-03T00:56:25.649Z,8.50
2023-04-03T00:59:13.591Z,9.80
2023-04-03T01:01:41.014Z,7.90
2023-04-03T01:04:33.874Z,9.80
2023-04-03T01:09:31.725Z,8.70
2023-04-03T01:12:24.379Z,8.80
2023-04-03T01:14:55.136Z,9.20
2023-04-03T01:17:36.242Z,8.80
2023-04-03T01:20:03.369Z,8.60
2023-04-03T01:22:35.916Z,9.70
2023-04-03T01:25:02.819Z,8.30
2023-04-03T01:27:30.340Z,7.90
2023-04-03T01:29:56.923Z,8.20
2023-04-03T01:32:25.572Z,7.90
2023-04-03T01:34:52.468Z,8.70
2023-04-03T01:37:19.405Z,8.80
2023-04-03T01:39:46.276Z,8.30
2023-04-03T01:42:12.939Z,9.10
2023-04-03T01:44:42.219Z,8.00
2023-04-03T01:47:09.317Z,9.70
2023-04-03T01:49:36.288Z,7.50
2023-04-03T01:52:02.931Z,10.00
2023-04-03T01:54:30.148Z,7.30
2023-04-03T01:56:57.200Z,7.30
2023-04-03T01:59:24.173Z,10.80
2023-04-03T02:01:51.105Z,8.60
2023-04-03T02:04:18.272Z,7.80
2023-04-03T02:06:45.075Z,7.80
2023-04-03T02:09:12.407Z,7.10
2023-04-03T02:11:39.509Z,7.70
2023-04-03T02:14:07.343Z,10.40
2023-04-03T02:19:08.191Z,10.30
2023-04-03T02:21:35.223Z,11.90
2023-04-03T02:24:01.794Z,10.00
2023-04-03T02:26:28.960Z,11.80
2023-04-03T02:28:57.062Z,12.80
2023-04-03T02:31:24.462Z,11.20
2023-04-03T02:33:51.660Z,10.50
2023-04-03T02:36:19.035Z,12.80
2023-04-03T02:38:50.344Z,11.10
2023-04-03T02:41:17.145Z,12.40
2023-04-03T02:43:43.851Z,11.00
2023-04-03T02:46:10.789Z,11.90
2023-04-03T02:48:39.002Z,12.00
2023-04-03T02:51:05.757Z,10.40
2023-04-03T02:53:33.069Z,10.50
2023-04-03T02:56:07.203Z,10.40
2023-04-03T02:58:34.364Z,9.10
2023-04-03T03:01:05.148Z,9.20
2023-04-03T03:03:32.769Z,10.80
2023-04-03T03:06:10.988Z,11.50
2023-04-03T03:08:38.169Z,9.70
2023-04-03T03:11:05.842Z,13.60
2023-04-03T03:13:33.524Z,11.10
2023-04-03T03:16:00.998Z,11.90
2023-04-03T03:18:28.300Z,11.30
2023-04-03T03:20:59.480Z,12.10
2023-04-03T03:23:27.088Z,10.30
2023-04-03T03:25:57.855Z,11.80
2023-04-03T03:28:25.436Z,10.20
2023-04-03T03:30:52.666Z,11.90
2023-04-03T03:33:20.136Z,11.30
2023-04-03T03:35:46.889Z,13.40
2023-04-03T03:38:13.818Z,11.60
2023-04-03T03:40:40.843Z,9.70
2023-04-03T03:43:07.717Z,15.20
2023-04-03T03:45:36.563Z,11.30
2023-04-03T03:48:04.155Z,10.70
2023-04-03T03:50:32.731Z,13.90
2023-04-03T03:55:43.237Z,14.30
2023-04-03T03:58:11.917Z,12.70
2023-04-03T04:00:40.434Z,15.70
2023-04-03T04:03:09.772Z,16.60
2023-04-03T04:05:39.389Z,16.50
2023-04-03T04:08:15.029Z,14.70
2023-04-03T04:10:45.738Z,16.40
2023-04-03T04:13:15.549Z,16.40
2023-04-03T04:15:44.404Z,14.80
2023-04-03T04:18:13.174Z,15.60
2023-04-03T04:20:42.573Z,12.70
2023-04-03T04:23:13.842Z,13.70
2023-04-03T04:25:42.277Z,12.20
2023-04-03T04:28:11.230Z,10.50
2023-04-03T04:30:40.379Z,11.60
2023-04-03T04:33:09.480Z,13.20
2023-04-03T04:35:39.655Z,13.70
2023-04-03T04:38:09.831Z,15.50
2023-04-03T04:40:38.886Z,15.60
2023-04-03T04:43:07.212Z,12.10
2023-04-03T04:45:37.121Z,15.90
2023-04-03T04:48:05.807Z,11.20
2023-04-03T04:50:36.516Z,15.30
2023-04-03T04:53:05.522Z,11.30
2023-04-03T04:55:33.549Z,12.50
2023-04-03T04:58:02.853Z,11.70
2023-04-03T05:00:33.520Z,12.50
2023-04-03T05:03:02.672Z,11.80
2023-04-03T05:05:32.289Z,12.70
2023-04-03T05:08:00.697Z,13.60
2023-04-03T05:10:29.777Z,12.90
2023-04-03T05:12:58.882Z,11.60
2023-04-03T05:15:28.030Z,9.90
2023-04-03T05:17:57.774Z,11.50
2023-04-03T05:20:26.413Z,11.50
2023-04-03T05:22:54.403Z,14.20
2023-04-03T05:25:23.128Z,15.10
2023-04-03T05:27:51.547Z,14.30
2023-04-03T05:30:20.112Z,12.20
2023-04-03T05:32:49.297Z,12.70
2023-04-03T05:35:24.574Z,13.40
2023-04-03T05:37:54.080Z,12.60
2023-04-03T05:40:22.788Z,11.40
2023-04-03T05:42:54.569Z,13.10
2023-04-03T05:45:23.262Z,11.90
2023-04-03T05:47:51.918Z,13.00
2023-04-03T05:50:20.318Z,11.40
2023-04-03T05:52:52.210Z,14.00
2023-04-03T05:55:21.070Z,13.50
2023-04-03T05:57:49.514Z,12.90
2023-04-03T06:00:18.569Z,11.80
2023-04-03T06:02:51.551Z,12.00
2023-04-03T06:05:23.720Z,11.80
2023-04-03T06:07:51.938Z,13.10
2023-04-03T06:10:21.405Z,13.80
2023-04-03T06:12:51.408Z,10.70
2023-04-03T06:15:19.345Z,10.60
2023-04-03T06:17:50.048Z,13.40
2023-04-03T06:20:18.619Z,10.20
2023-04-03T06:22:47.133Z,10.90
2023-04-03T06:25:18.588Z,16.10
2023-04-03T06:27:46.659Z,11.50
2023-04-03T06:30:14.971Z,15.00
2023-04-03T06:32:44.200Z,10.40
2023-04-03T06:35:13.125Z,11.90
2023-04-03T06:37:41.673Z,11.20
2023-04-03T06:40:16.749Z,13.90
2023-04-03T06:42:45.680Z,11.00
2023-04-03T06:45:15.118Z,12.00
2023-04-03T06:47:46.529Z,10.90
2023-04-03T06:50:15.759Z,10.30
2023-04-03T06:52:45.945Z,10.00
2023-04-03T06:55:13.960Z,9.70
2023-04-03T06:57:42.348Z,10.50
2023-04-03T07:00:12.036Z,10.40
2023-04-03T07:02:41.162Z,10.20
2023-04-03T07:05:10.106Z,11.70
2023-04-03T07:07:38.920Z,10.20
2023-04-03T07:10:07.694Z,13.40
2023-04-03T07:12:36.922Z,12.90
2023-04-03T07:15:06.880Z,12.70
2023-04-03T07:17:35.337Z,11.80
2023-04-03T07:20:05.034Z,9.60
2023-04-03T07:22:37.223Z,11.10
2023-04-03T07:25:08.007Z,11.30
2023-04-03T07:27:36.373Z,11.10
2023-04-03T07:30:05.179Z,12.00
2023-04-03T07:32:36.371Z,9.20
2023-04-03T07:35:05.105Z,9.80
2023-04-03T07:37:33.706Z,10.50
2023-04-03T07:40:04.686Z,10.60
2023-04-03T07:42:33.324Z,11.20
2023-04-03T07:45:02.780Z,10.80
2023-04-03T07:47:32.755Z,12.40
2023-04-03T07:50:01.410Z,16.90
2023-04-03T07:52:31.976Z,12.10
2023-04-03T07:55:00.708Z,15.30
2023-04-03T07:57:29.241Z,13.80
2023-04-03T07:59:57.828Z,14.30
2023-04-03T08:02:26.338Z,12.90
2023-04-03T08:04:54.719Z,12.50
2023-04-03T08:07:23.129Z,12.10
2023-04-03T08:09:52.690Z,12.40
2023-04-03T08:12:20.889Z,11.80
2023-04-03T08:14:49.323Z,12.80
2023-04-03T08:17:19.447Z,13.50
2023-04-03T08:19:47.654Z,15.50
2023-04-03T08:22:17.152Z,14.40
2023-04-03T08:24:58.474Z,12.40
2023-04-03T08:27:28.314Z,10.60
2023-04-03T08:29:58.154Z,15.10
2023-04-03T08:32:26.818Z,11.50
2023-04-03T08:34:55.481Z,12.50
2023-04-03T08:37:27.558Z,10.70
2023-04-03T08:39:55.981Z,9.60
2023-04-03T08:42:41.595Z,12.30
2023-04-03T08:45:17.049Z,9.60
2023-04-03T08:47:53.407Z,9.00
2023-04-03T08:50:29.552Z,9.70
2023-04-03T08:52:58.797Z,9.60
2023-04-03T08:55:46.821Z,8.00
2023-04-03T08:58:19.599Z,11.90
2023-04-03T09:00:48.291Z,11.40
2023-04-03T09:03:18.565Z,10.50
2023-04-03T09:06:06.585Z,9.90
2023-04-03T09:09:05.930Z,10.60
2023-04-03T09:11:50.472Z,10.30
2023-04-03T09:14:56.470Z,9.90
2023-04-03T09:17:52.673Z,11.60
2023-04-03T09:20:46.224Z,9.40
2023-04-03T09:23:34.219Z,10.00
2023-04-03T09:26:06.246Z,11.60
2023-04-03T09:28:43.031Z,9.90
2023-04-03T09:31:23.675Z,11.30
2023-04-03T09:33:55.789Z,10.60
2023-04-03T09:36:42.334Z,11.00
2023-04-03T09:39:14.449Z,10.60
2023-04-03T09:41:43.926Z,10.10
2023-04-03T09:44:22.404Z,10.40
2023-04-03T09:46:50.540Z,11.70
2023-04-03T09:49:18.907Z,11.30
2023-04-03T09:51:47.008Z,12.00
2023-04-03T09:54:38.569Z,10.20
2023-04-03T09:57:09.516Z,14.00
2023-04-03T09:59:42.450Z,10.20
2023-04-03T10:02:13.667Z,9.90
2023-04-03T10:04:42.499Z,9.90
2023-04-03T10:07:30.665Z,10.30
2023-04-03T10:10:04.701Z,8.80
2023-04-03T10:12:33.253Z,9.70
2023-04-03T10:15:02.213Z,8.30
2023-04-03T10:17:52.963Z,8.70
2023-04-03T10:20:24.468Z,8.30
2023-04-03T10:23:18.861Z,9.40
2023-04-03T10:25:56.478Z,8.30
2023-04-03T10:28:46.766Z,8.90
2023-04-03T10:31:40.487Z,9.00
2023-04-03T10:34:58.611Z,8.70
2023-04-03T10:38:12.105Z,8.20
2023-04-03T10:41:02.142Z,8.60
2023-04-03T10:43:35.463Z,7.60
2023-04-03T10:46:10.960Z,7.80
2023-04-03T10:48:48.678Z,7.80
2023-04-03T10:51:38.497Z,7.70
2023-04-03T10:54:10.362Z,8.10
2023-04-03T10:57:11.904Z,9.40
2023-04-03T10:59:48.423Z,8.40
2023-04-03T11:02:42.126Z,8.90
2023-04-03T11:05:20.582Z,10.00
2023-04-03T11:07:51.944Z,11.60
2023-04-03T11:10:27.294Z,9.40
2023-04-03T11:13:03.101Z,8.60
2023-04-03T11:15:32.175Z,10.50
2023-04-03T11:18:09.794Z,12.80
2023-04-03T11:20:49.045Z,10.10
2023-04-03T11:25:53.627Z,11.50
2023-04-03T11:28:21.748Z,9.00
2023-04-03T11:31:19.119Z,9.60
2023-04-03T11:34:04.734Z,7.30
2023-04-03T11:39:24.154Z,8.50
2023-04-03T11:42:00.283Z,9.10
2023-04-03T11:44:39.907Z,7.40
2023-04-03T11:47:52.585Z,10.30
2023-04-03T11:50:43.545Z,8.60
2023-04-03T11:53:15.059Z,6.20
2023-04-03T11:55:44.295Z,6.70
2023-04-03T11:58:18.280Z,6.40
2023-04-03T12:03:31.006Z,7.60
2023-04-03T12:06:15.073Z,6.50
2023-04-03T12:08:48.023Z,6.40
2023-04-03T12:11:33.786Z,5.50
2023-04-03T12:14:05.659Z,8.00
2023-04-03T12:16:35.115Z,5.90
2023-04-03T12:22:17.616Z,6.60
2023-04-03T12:24:47.989Z,7.10
2023-04-03T12:27:20.152Z,9.30
2023-04-03T12:30:07.927Z,6.80
2023-04-03T12:33:12.519Z,6.80
2023-04-03T12:35:56.829Z,6.20
2023-04-03T12:38:54.602Z,6.90
2023-04-03T12:41:47.623Z,7.30
2023-04-03T12:44:34.243Z,6.70
2023-04-03T12:47:03.782Z,7.00
2023-04-03T12:49:43.929Z,7.00
2023-04-03T12:52:29.284Z,7.60
2023-04-03T12:54:59.531Z,6.50
2023-04-03T12:57:33.753Z,7.60
2023-04-03T13:00:08.606Z,6.80
2023-04-03T13:02:45.699Z,9.20
2023-04-03T13:05:22.001Z,7.30
2023-04-03T13:08:14.152Z,7.00
2023-04-03T13:10:59.443Z,6.10
2023-04-03T13:13:32.895Z,6.70
2023-04-03T13:16:01.547Z,7.30
2023-04-03T13:18:38.909Z,6.40
2023-04-03T13:21:19.257Z,9.00
2023-04-03T13:23:51.601Z,7.20
2023-04-03T13:26:30.091Z,6.00
2023-04-03T13:29:04.818Z,5.50
2023-04-03T13:31:45.116Z,5.60
2023-04-03T13:34:21.433Z,6.30
2023-04-03T13:37:00.200Z,5.40
2023-04-03T13:39:34.085Z,6.00
2023-04-03T13:42:16.982Z,7.90
2023-04-03T13:44:52.182Z,4.90
2023-04-03T13:47:26.941Z,6.00
2023-04-03T13:50:16.404Z,5.80
2023-04-03T13:52:52.933Z,5.10
2023-04-03T13:55:35.690Z,5.20
2023-04-03T13:58:18.307Z,6.20
2023-04-03T14:00:54.529Z,6.30
2023-04-03T14:03:29.314Z,6.60
2023-04-03T14:06:03.104Z,4.90
2023-04-03T14:08:42.966Z,4.50
2023-04-03T14:11:28.102Z,4.90
2023-04-03T14:13:57.469Z,5.40
2023-04-03T14:16:29.201Z,7.80
2023-04-03T14:18:59.400Z,3.80
2023-04-03T14:21:28.676Z,5.10
2023-04-03T14:24:01.360Z,5.00
2023-04-03T14:26:32.053Z,5.50
2023-04-03T14:29:04.734Z,4.50
2023-04-03T14:31:37.169Z,5.10
2023-04-03T14:34:06.040Z,5.80
2023-04-03T14:36:35.214Z,7.80
2023-04-03T14:39:06.077Z,8.20
2023-04-03T14:41:35.014Z,7.40
2023-04-03T14:44:04.853Z,5.60
2023-04-03T14:46:54.490Z,4.30
2023-04-03T14:49:32.214Z,4.60
2023-04-03T14:52:08.868Z,4.50
2023-04-03T14:54:40.345Z,3.30
2023-04-03T14:57:10.180Z,3.50
2023-04-03T15:02:38.793Z,2.90
2023-04-03T15:05:09.736Z,3.00
2023-04-03T15:07:50.252Z,3.00
2023-04-03T15:10:20.014Z,2.10
2023-04-03T15:12:57.202Z,2.70
2023-04-03T15:15:29.754Z,3.90
2023-04-03T15:18:00.896Z,7.60
2023-04-03T15:20:31.661Z,3.60
2023-04-03T15:23:09.782Z,3.70
2023-04-03T15:25:47.740Z,4.50
2023-04-03T15:28:37.016Z,3.70
2023-04-03T15:31:10.514Z,3.50
2023-04-03T15:33:38.936Z,3.20
2023-04-03T15:36:16.750Z,3.30
2023-04-03T15:38:52.085Z,3.00
2023-04-03T15:41:22.680Z,3.80
2023-04-03T15:43:51.201Z,2.50
2023-04-03T15:46:35.653Z,3.20
2023-04-03T15:49:03.974Z,2.60
2023-04-03T15:51:45.100Z,5.80
2023-04-03T15:54:17.702Z,22.60
2023-04-03T15:56:47.703Z,18.70
2023-04-03T15:59:25.506Z,10.90
2023-04-03T16:01:55.540Z,7.40
2023-04-03T16:04:29.246Z,5.60
2023-04-03T16:06:59.590Z,4.30
2023-04-03T16:09:29.218Z,14.40
2023-04-03T16:13:54.688Z,14.00
2023-04-03T16:16:28.010Z,12.90
2023-04-03T16:18:58.733Z,4.20
2023-04-03T16:21:37.465Z,3.90
2023-04-03T16:24:11.983Z,2.80
2023-04-03T16:26:40.676Z,4.70
2023-04-03T16:29:11.941Z,7.80
2023-04-03T16:31:43.162Z,9.80
2023-04-03T16:34:12.486Z,5.20
2023-04-03T16:36:40.354Z,3.30
2023-04-03T16:39:10.614Z,2.60
2023-04-03T16:41:39.020Z,5.20
2023-04-03T16:44:07.806Z,7.60
2023-04-03T16:46:39.358Z,7.20
2023-04-03T16:49:07.811Z,5.50
2023-04-03T16:51:37.564Z,3.30
2023-04-03T16:54:04.279Z,3.80
2023-04-03T16:56:32.378Z,2.50
2023-04-03T16:58:59.293Z,3.70
2023-04-03T17:01:27.424Z,3.70
2023-04-03T17:04:08.497Z,2.90
2023-04-03T17:06:36.550Z,5.00
2023-04-03T17:09:03.593Z,4.30
2023-04-03T17:11:30.713Z,2.60
2023-04-03T17:13:57.970Z,3.60
2023-04-03T17:16:25.256Z,2.80
2023-04-03T17:18:56.735Z,3.50
2023-04-03T17:21:24.318Z,4.60
2023-04-03T17:23:54.309Z,3.60
2023-04-03T17:26:21.568Z,4.30
2023-04-03T17:28:48.472Z,4.20
2023-04-03T17:31:15.750Z,4.20
2023-04-03T17:33:43.156Z,5.60
2023-04-03T17:36:10.056Z,4.50
2023-04-03T17:38:38.051Z,5.70
2023-04-03T17:41:06.785Z,3.60
2023-04-03T17:43:34.139Z,2.60
2023-04-03T17:46:03.564Z,3.90
2023-04-03T17:48:31.909Z,3.90
2023-04-03T17:50:58.998Z,3.10
2023-04-03T17:53:27.154Z,4.20
2023-04-03T17:55:54.185Z,3.80
2023-04-03T17:58:21.103Z,3.20
2023-04-03T18:00:48.899Z,4.00
2023-04-03T18:03:16.923Z,3.20
2023-04-03T18:05:43.561Z,3.90
2023-04-03T18:08:10.307Z,4.30
2023-04-03T18:10:38.718Z,2.80
2023-04-03T18:13:07.231Z,3.10
2023-04-03T18:15:37.961Z,3.30
2023-04-03T18:18:04.993Z,3.90
2023-04-03T18:20:33.357Z,3.30
2023-04-03T18:23:00.774Z,3.40
2023-04-03T18:28:06.939Z,4.10
2023-04-03T18:30:34.130Z,4.90
2023-04-03T18:33:03.372Z,3.90
2023-04-03T18:35:30.937Z,3.80
2023-04-03T18:38:01.032Z,3.70
2023-04-03T18:40:28.072Z,3.50
2023-04-03T18:42:54.754Z,3.50
2023-04-03T18:45:21.871Z,3.70
2023-04-03T18:47:48.563Z,4.20
2023-04-03T18:50:15.962Z,4.50
2023-04-03T18:52:42.865Z,3.80
2023-04-03T18:55:13.356Z,4.60
2023-04-03T18:57:40.362Z,4.80
2023-04-03T19:00:13.618Z,5.40
2023-04-03T19:02:42.369Z,5.40
2023-04-03T19:05:10.819Z,4.60
2023-04-03T19:07:44.343Z,6.30
2023-04-03T19:10:19.487Z,5.30
2023-04-03T19:12:47.531Z,5.10
2023-04-03T19:15:15.402Z,6.80
2023-04-03T19:17:42.796Z,4.80
2023-04-03T19:20:10.255Z,5.60
2023-04-03T19:22:37.375Z,4.90
2023-04-03T19:25:05.334Z,5.80
2023-04-03T19:27:34.038Z,4.90
2023-04-03T19:30:01.166Z,4.50
2023-04-03T19:32:33.361Z,5.70
2023-04-03T19:35:00.889Z,4.70
2023-04-03T19:37:28.304Z,4.50
2023-04-03T19:39:55.245Z,4.50
2023-04-03T19:42:22.994Z,4.40
2023-04-03T19:44:49.937Z,4.30
2023-04-03T19:47:18.720Z,3.50
2023-04-03T19:49:45.466Z,4.50
2023-04-03T19:52:13.225Z,5.40
2023-04-03T19:54:40.037Z,4.30
2023-04-03T19:57:11.743Z,3.90
2023-04-03T19:59:40.903Z,3.70
2023-04-03T20:02:11.720Z,4.40
2023-04-03T20:04:39.312Z,3.40
2023-04-03T20:07:06.758Z,4.40
2023-04-03T20:09:34.257Z,4.50
2023-04-03T20:12:02.827Z,7.00
2023-04-03T20:14:30.548Z,5.50
2023-04-03T20:16:57.758Z,4.60
2023-04-03T20:19:25.619Z,4.40
2023-04-03T20:21:53.470Z,4.70
2023-04-03T20:24:21.674Z,3.30
2023-04-03T20:26:48.757Z,3.80
2023-04-03T20:29:16.230Z,4.90
2023-04-03T20:31:43.533Z,4.10
2023-04-03T20:34:11.318Z,3.80
2023-04-03T20:36:39.603Z,3.70
2023-04-03T20:39:07.029Z,4.40
2023-04-03T20:41:36.664Z,5.40
2023-04-03T20:44:05.091Z,5.60
2023-04-03T20:46:49.063Z,5.00
2023-04-03T20:49:18.875Z,5.00
2023-04-03T20:51:46.117Z,4.30
2023-04-03T20:54:14.122Z,3.80
2023-04-03T20:56:41.011Z,4.80
2023-04-03T20:59:10.455Z,4.80
2023-04-03T21:01:38.930Z,3.30
2023-04-03T21:04:11.697Z,3.60
2023-04-03T21:07:17.814Z,5.50
2023-04-03T21:10:24.718Z,8.30
2023-04-03T21:13:29.601Z,9.10
2023-04-03T21:15:59.371Z,7.60
2023-04-03T21:18:49.744Z,7.50
2023-04-03T21:21:22.778Z,9.00
2023-04-03T21:23:50.607Z,8.50
2023-04-03T21:26:17.452Z,8.30
2023-04-03T21:28:44.499Z,9.20
2023-04-03T21:31:12.747Z,8.70
2023-04-03T21:33:42.033Z,7.40
2023-04-03T21:36:09.594Z,6.20
2023-04-03T21:38:36.344Z,6.70
2023-04-03T21:41:03.373Z,8.30
2023-04-03T21:43:30.045Z,6.20
2023-04-03T21:45:57.974Z,6.30
2023-04-03T21:48:28.647Z,7.10
2023-04-03T21:51:01.779Z,6.30
2023-04-03T21:53:30.745Z,7.90
2023-04-03T21:55:57.464Z,6.00
2023-04-03T21:58:31.278Z,6.30
2023-04-03T22:01:13.261Z,6.30
2023-04-03T22:03:41.830Z,6.30
2023-04-03T22:06:10.826Z,4.90
2023-04-03T22:08:39.932Z,5.10
2023-04-03T22:11:12.189Z,4.70
2023-04-03T22:13:39.189Z,5.00
2023-04-03T22:16:08.413Z,4.10
2023-04-03T22:18:35.659Z,4.20
2023-04-03T22:21:02.831Z,4.30
2023-04-03T22:23:32.238Z,6.00
2023-04-03T22:26:06.968Z,4.70
2023-04-03T22:28:39.245Z,4.30
2023-04-03T22:31:12.776Z,4.60
2023-04-03T22:36:09.039Z,6.10
2023-04-03T22:38:36.638Z,4.60
2023-04-03T22:41:05.634Z,5.20
2023-04-03T22:43:33.847Z,4.50
2023-04-03T22:46:09.609Z,5.70
2023-04-03T22:48:37.143Z,4.80
2023-04-03T22:51:07.917Z,4.10
2023-04-03T22:53:35.445Z,3.80
2023-04-03T22:56:11.973Z,4.20
2023-04-03T22:58:41.037Z,4.80
2023-04-03T23:01:17.304Z,3.70
2023-04-03T23:03:46.327Z,5.20
2023-04-03T23:06:13.543Z,5.00
2023-04-03T23:08:47.762Z,4.50
2023-04-03T23:11:18.162Z,5.20
2023-04-03T23:13:47.064Z,4.60
2023-04-03T23:16:17.340Z,3.90
2023-04-03T23:18:51.445Z,6.00
2023-04-03T23:21:19.336Z,4.20
2023-04-03T23:23:46.898Z,5.00
2023-04-03T23:26:13.873Z,4.70
2023-04-03T23:28:50.606Z,4.30
2023-04-03T23:31:18.991Z,5.40
2023-04-03T23:33:50.873Z,4.30
2023-04-03T23:36:18.056Z,5.60
2023-04-03T23:39:03.138Z,5.30
2023-04-03T23:41:35.835Z,4.90
2023-04-03T23:44:04.971Z,4.10
2023-04-03T23:46:36.474Z,4.40
2023-04-03T23:49:08.958Z,3.70
2023-04-03T23:51:40.124Z,3.70
2023-04-03T23:54:07.838Z,3.70
2023-04-03T23:56:41.760Z,6.20
2023-04-03T23:59:13.650Z,3.60
